Ponce, PR (00731)

1:02 AM AST on March 01, 2015 (GMT -0400)
City | Change Station
CLOSE
Current Station
Personal Weather Station
Location: Ponce, PR
Elevation: 36 ft
Nearby Weather Stations

Elev 36 ft 18.00 °N, 66.64 °W | Updated 10 seconds ago

Partly Cloudy
Partly Cloudy
75.2 °F
Feels Like 77 °F
N
3.8
Wind Variable Wind from North
Gusts 3.8 mph

Today
High -- | Low -- °F
--% Chance of Precip.
Yesterday
High -- | Low -- °F
Precip. -- in
6:45 AM 6:32 PM
Waxing Gibbous, 82% visible
Pressure 30.07 in
Visibility 8.0 miles
Clouds Few 2500 ft
Few 5000 ft
Heat Index 77 °F
Dew Point 66 °F
Humidity 74%
Rainfall 0.00 in
Snow Depth Not available.
UV 0 out of 12
Pollen Not available.
Air Quality Not available.
Flu Activity Not available.
METAR TJPS 010450Z 05005KT 08SM FEW025 FEW050 24/19 A3007

More Conditions Fewer Conditions

Pressure 30.07 in
Visibility 8.0 miles
Clouds Few 2500 ft
Few 5000 ft
Heat Index 77 °F
Dew Point 66 °F
Humidity 74%
Rainfall 0.00 in
Snow Depth Not available.
UV 0 out of 12
Pollen Not available.
Air Quality Not available.
Flu Activity Not available.
METAR TJPS 010450Z 05005KT 08SM FEW025 FEW050 24/19 A3007

More Conditions Fewer Conditions

10-Day Weather Forecast

Almanac

Astronomy

Mar. 01, 2015 Rise Set
Actual Time
Civil Twilight
Nautical Twilight
Astronomical Twilight
Moon
Length of Visible Light
Length of Day
Tomorrow will be .
, % of the Moon is Illuminated

Today's Extremes

State Highs State Lows

Community

WunderPhotos

Upload Photos

1,801,317 photos uploaded!

WunderBlogs® & News

Nearby

Air Quality

  Air Quality AQ Index Pollutant
Not available.

Snow Depth

Station Depth Elevation

Earthquake Activity

City Distance Mag. Time & Date
Minimum magnitude displayed is 2.5.

Coastal Water Temperatures

Place Temperature

Nearby Weather Stations